createdAt,value
2022-10-25T00:01:48.329Z,95.74
2022-10-25T00:04:15.783Z,95.25
2022-10-25T00:06:43.187Z,95.51
2022-10-25T00:09:10.743Z,95.33
2022-10-25T00:11:37.578Z,95.26
2022-10-25T00:14:06.332Z,95.81
2022-10-25T00:16:36.995Z,96.08
2022-10-25T00:19:05.370Z,95.88
2022-10-25T00:21:32.709Z,95.62
2022-10-25T00:23:59.657Z,95.54
2022-10-25T00:26:26.445Z,95.78
2022-10-25T00:28:55.294Z,96.36
2022-10-25T00:31:23.309Z,96.79
2022-10-25T00:33:50.257Z,96.01
2022-10-25T00:36:22.736Z,95.66
2022-10-25T00:38:49.826Z,95.46
2022-10-25T00:41:19.946Z,95.44
2022-10-25T00:43:55.623Z,95.43
2022-10-25T00:46:27.100Z,95.30
2022-10-25T00:49:23.172Z,95.44
2022-10-25T00:51:56.230Z,95.63
2022-10-25T00:54:26.872Z,96.31
2022-10-25T00:56:55.013Z,96.27
2022-10-25T00:59:27.187Z,96.22
2022-10-25T01:01:55.965Z,95.60
2022-10-25T01:04:26.675Z,95.49
2022-10-25T01:06:54.278Z,95.82
2022-10-25T01:09:25.126Z,95.48
2022-10-25T01:11:52.045Z,95.56
2022-10-25T01:14:19.589Z,95.60
2022-10-25T01:16:55.297Z,95.78
2022-10-25T01:19:25.176Z,95.65
2022-10-25T01:22:12.313Z,95.74
2022-10-25T01:24:48.290Z,95.80
2022-10-25T01:27:54.002Z,95.52
2022-10-25T01:30:23.885Z,95.58
2022-10-25T01:33:08.988Z,96.02
2022-10-25T01:35:46.981Z,96.20
2022-10-25T01:38:56.415Z,96.03
2022-10-25T01:42:00.527Z,95.88
2022-10-25T01:45:04.963Z,95.84
2022-10-25T01:48:00.775Z,95.74
2022-10-25T01:50:34.304Z,95.42
2022-10-25T01:53:01.030Z,95.49
2022-10-25T01:55:35.225Z,95.71
2022-10-25T01:58:23.449Z,95.73
2022-10-25T02:01:11.759Z,95.74
2022-10-25T02:04:23.945Z,95.86
2022-10-25T02:07:06.862Z,95.81
2022-10-25T02:09:44.414Z,95.19
2022-10-25T02:12:19.197Z,95.18
2022-10-25T02:15:08.812Z,95.04
2022-10-25T02:17:42.717Z,95.45
2022-10-25T02:20:11.665Z,95.59
2022-10-25T02:22:39.806Z,95.21
2022-10-25T02:25:08.934Z,95.51
2022-10-25T02:27:39.234Z,95.46
2022-10-25T02:30:07.705Z,95.28
2022-10-25T02:32:34.876Z,95.19
2022-10-25T02:35:04.623Z,95.13
2022-10-25T02:37:32.606Z,95.06
2022-10-25T02:39:59.954Z,94.95
2022-10-25T02:42:27.012Z,94.84
2022-10-25T02:44:53.945Z,94.59
2022-10-25T02:47:20.697Z,95.12
2022-10-25T02:49:47.459Z,95.48
2022-10-25T02:52:14.234Z,95.40
2022-10-25T02:54:40.960Z,95.00
2022-10-25T02:57:07.727Z,95.07
2022-10-25T02:59:34.523Z,95.05
2022-10-25T03:02:01.529Z,95.00
2022-10-25T03:04:28.335Z,95.54
2022-10-25T03:06:55.192Z,95.57
2022-10-25T03:09:21.943Z,95.38
2022-10-25T03:11:48.710Z,95.40
2022-10-25T03:14:15.736Z,95.24
2022-10-25T03:16:42.599Z,95.05
2022-10-25T03:19:09.642Z,95.37
2022-10-25T03:21:38.684Z,95.56
2022-10-25T03:24:08.283Z,95.40
2022-10-25T03:26:35.215Z,94.74
2022-10-25T03:29:01.929Z,94.94
2022-10-25T03:31:28.954Z,95.00
2022-10-25T03:33:55.702Z,95.75
2022-10-25T03:36:22.471Z,95.59
2022-10-25T03:38:49.217Z,95.57
2022-10-25T03:41:16.048Z,95.63
2022-10-25T03:43:42.781Z,95.69
2022-10-25T03:46:09.475Z,95.88
2022-10-25T03:48:36.718Z,95.85
2022-10-25T03:51:03.499Z,96.48
2022-10-25T03:53:31.271Z,96.73
2022-10-25T03:55:58.242Z,96.46
2022-10-25T03:58:25.057Z,95.92
2022-10-25T04:00:51.897Z,95.81
2022-10-25T04:03:18.652Z,95.79
2022-10-25T04:05:45.566Z,95.89
2022-10-25T04:08:12.355Z,96.45
2022-10-25T04:10:39.216Z,96.42
2022-10-25T04:13:05.976Z,96.02
2022-10-25T04:15:32.788Z,95.64
2022-10-25T04:17:59.536Z,94.99
2022-10-25T04:20:26.274Z,95.07
2022-10-25T04:22:55.277Z,95.59
2022-10-25T04:25:22.867Z,95.63
2022-10-25T04:27:49.862Z,95.29
2022-10-25T04:30:16.859Z,95.27
2022-10-25T04:32:44.089Z,95.21
2022-10-25T04:35:12.927Z,95.34
2022-10-25T04:37:39.692Z,95.74
2022-10-25T04:40:07.236Z,96.13
2022-10-25T04:42:34.856Z,95.92
2022-10-25T04:45:01.883Z,96.21
2022-10-25T04:47:33.030Z,96.27
2022-10-25T04:49:59.805Z,96.24
2022-10-25T04:52:26.599Z,96.12
2022-10-25T04:54:53.303Z,96.04
2022-10-25T04:57:20.008Z,95.99
2022-10-25T04:59:46.811Z,95.85
2022-10-25T05:02:14.696Z,95.87
2022-10-25T05:04:42.446Z,95.63
2022-10-25T05:07:09.236Z,95.83
2022-10-25T05:09:36.102Z,95.75
2022-10-25T05:12:02.926Z,96.08
2022-10-25T05:14:29.719Z,96.44
2022-10-25T05:16:56.639Z,96.27
2022-10-25T05:19:23.387Z,96.20
2022-10-25T05:21:50.421Z,96.32
2022-10-25T05:24:17.214Z,96.12
2022-10-25T05:26:44.220Z,96.61
2022-10-25T05:29:12.929Z,96.66
2022-10-25T05:31:41.232Z,96.46
2022-10-25T05:34:10.410Z,96.29
2022-10-25T05:36:37.591Z,96.40
2022-10-25T05:39:04.390Z,96.14
2022-10-25T05:41:34.589Z,96.34
2022-10-25T05:44:04.553Z,97.04
2022-10-25T05:46:31.838Z,96.83
2022-10-25T05:48:59.746Z,96.36
2022-10-25T05:51:37.185Z,96.00
2022-10-25T05:54:10.633Z,96.21
2022-10-25T05:56:38.643Z,96.07
2022-10-25T05:59:11.191Z,97.10
2022-10-25T06:01:40.916Z,97.82
2022-10-25T06:04:08.678Z,97.67
2022-10-25T06:06:36.397Z,97.24
2022-10-25T06:09:04.082Z,97.04
2022-10-25T06:11:31.846Z,97.23
2022-10-25T06:13:59.039Z,97.54
2022-10-25T06:16:25.794Z,98.02
2022-10-25T06:18:54.281Z,98.14
2022-10-25T06:21:23.995Z,98.63
2022-10-25T06:23:51.775Z,98.47
2022-10-25T06:26:23.977Z,98.80
2022-10-25T06:28:56.626Z,98.98
2022-10-25T06:31:24.105Z,99.60
2022-10-25T06:33:51.159Z,100.00
2022-10-25T06:36:20.965Z,99.95
2022-10-25T06:38:48.600Z,99.71
2022-10-25T06:41:24.119Z,99.72
2022-10-25T06:43:51.768Z,99.76
2022-10-25T06:46:28.532Z,100.00
2022-10-25T06:48:56.603Z,100.00
2022-10-25T06:51:25.169Z,100.00
2022-10-25T06:53:56.024Z,100.00
2022-10-25T06:56:23.687Z,100.00
2022-10-25T06:58:50.699Z,100.00
2022-10-25T07:01:19.673Z,100.00
2022-10-25T07:03:46.676Z,100.00
2022-10-25T07:06:16.174Z,100.00
2022-10-25T07:08:44.947Z,100.00
2022-10-25T07:11:16.996Z,100.00
2022-10-25T07:13:44.402Z,100.00
2022-10-25T07:16:13.500Z,100.00
2022-10-25T07:18:40.237Z,100.00
2022-10-25T07:21:23.561Z,100.00
2022-10-25T07:23:51.314Z,99.99
2022-10-25T07:26:44.354Z,99.93
2022-10-25T07:29:11.111Z,99.91
2022-10-25T07:31:41.337Z,100.00
2022-10-25T07:34:08.141Z,99.92
2022-10-25T07:36:35.055Z,99.79
2022-10-25T07:39:01.882Z,99.79
2022-10-25T07:41:29.182Z,99.94
2022-10-25T07:43:56.096Z,99.52
2022-10-25T07:46:23.289Z,99.66
2022-10-25T07:48:52.567Z,99.63
2022-10-25T07:51:20.604Z,99.96
2022-10-25T07:53:47.941Z,100.00
2022-10-25T07:56:20.488Z,100.00
2022-10-25T07:58:51.494Z,100.00
2022-10-25T08:01:23.594Z,100.00
2022-10-25T08:03:52.254Z,100.00
2022-10-25T08:06:20.360Z,100.00
2022-10-25T08:08:47.558Z,99.92
2022-10-25T08:11:14.856Z,100.00
2022-10-25T08:13:42.010Z,100.00
2022-10-25T08:16:09.130Z,100.00
2022-10-25T08:18:35.957Z,99.96
2022-10-25T08:21:04.284Z,99.74
2022-10-25T08:23:32.827Z,99.28
2022-10-25T08:26:00.779Z,99.88
2022-10-25T08:28:28.256Z,100.00
2022-10-25T08:30:55.912Z,99.74
2022-10-25T08:33:26.561Z,99.56
2022-10-25T08:35:53.315Z,99.71
2022-10-25T08:38:20.221Z,99.84
2022-10-25T08:40:59.050Z,99.86
2022-10-25T08:43:58.280Z,99.74
2022-10-25T08:46:33.696Z,99.16
2022-10-25T08:49:33.578Z,98.83
2022-10-25T08:52:02.766Z,98.54
2022-10-25T08:54:43.126Z,98.55
2022-10-25T08:57:27.757Z,98.34
2022-10-25T09:00:01.856Z,98.17
2022-10-25T09:02:42.263Z,98.06
2022-10-25T09:05:36.949Z,98.29
2022-10-25T09:08:23.908Z,98.70
2022-10-25T09:11:12.886Z,98.93
2022-10-25T09:13:45.733Z,98.92
2022-10-25T09:16:16.764Z,99.23
2022-10-25T09:18:55.241Z,99.50
2022-10-25T09:21:25.398Z,99.52
2022-10-25T09:24:11.223Z,99.66
2022-10-25T09:26:37.944Z,99.01
2022-10-25T09:29:27.999Z,98.79
2022-10-25T09:31:59.107Z,98.21
2022-10-25T09:34:31.433Z,97.88
2022-10-25T09:37:07.207Z,98.20
2022-10-25T09:39:40.216Z,97.58
2022-10-25T09:42:16.935Z,96.60
2022-10-25T09:44:48.619Z,95.52
2022-10-25T09:47:26.481Z,94.54
2022-10-25T09:50:04.130Z,94.70
2022-10-25T09:52:30.873Z,94.99
2022-10-25T09:55:06.710Z,95.09
2022-10-25T09:57:33.996Z,95.20
2022-10-25T10:00:00.787Z,94.58
2022-10-25T10:02:28.318Z,94.54
2022-10-25T10:04:55.295Z,94.06
2022-10-25T10:07:36.329Z,93.84
2022-10-25T10:10:08.022Z,93.04
2022-10-25T10:13:16.774Z,92.23
2022-10-25T10:15:59.904Z,92.13
2022-10-25T10:18:34.846Z,92.26
2022-10-25T10:21:16.282Z,92.48
2022-10-25T10:24:04.949Z,92.72
2022-10-25T10:26:45.127Z,92.47
2022-10-25T10:29:16.768Z,91.96
2022-10-25T10:31:48.546Z,90.57
2022-10-25T10:34:41.443Z,89.34
2022-10-25T10:37:15.878Z,89.68
2022-10-25T10:39:59.446Z,90.08
2022-10-25T10:42:32.542Z,89.74
2022-10-25T10:45:08.386Z,89.67
2022-10-25T10:47:42.954Z,89.72
2022-10-25T10:50:25.799Z,89.93
2022-10-25T10:53:05.266Z,90.60
2022-10-25T10:55:36.464Z,89.78
2022-10-25T10:58:04.236Z,90.70
2022-10-25T11:00:32.878Z,93.79
2022-10-25T11:03:00.165Z,94.72
2022-10-25T11:05:35.368Z,92.30
2022-10-25T11:08:22.398Z,90.55
2022-10-25T11:10:49.274Z,89.71
2022-10-25T11:13:23.426Z,89.32
2022-10-25T11:16:12.480Z,88.75
2022-10-25T11:18:57.952Z,88.39
2022-10-25T11:21:47.641Z,88.61
2022-10-25T11:24:48.147Z,88.03
2022-10-25T11:27:20.636Z,86.91
2022-10-25T11:29:59.642Z,86.69
2022-10-25T11:33:04.310Z,87.42
2022-10-25T11:35:40.041Z,87.79
2022-10-25T11:38:35.845Z,86.51
2022-10-25T11:41:28.247Z,86.61
2022-10-25T11:44:00.790Z,86.04
2022-10-25T11:46:51.865Z,85.95
2022-10-25T11:49:43.310Z,85.93
2022-10-25T11:55:21.948Z,84.83
2022-10-25T11:57:51.657Z,83.86
2022-10-25T12:00:24.422Z,83.49
2022-10-25T12:02:57.321Z,83.62
2022-10-25T12:05:28.112Z,84.25
2022-10-25T12:08:16.427Z,84.30
2022-10-25T12:10:50.159Z,85.29
2022-10-25T12:13:31.594Z,85.68
2022-10-25T12:15:59.471Z,86.12
2022-10-25T12:18:38.279Z,87.15
2022-10-25T12:21:07.221Z,86.95
2022-10-25T12:23:47.445Z,87.03
2022-10-25T12:26:28.002Z,86.57
2022-10-25T12:28:57.185Z,86.34
2022-10-25T12:31:27.534Z,86.20
2022-10-25T12:34:01.914Z,86.42
2022-10-25T12:36:36.589Z,86.28
2022-10-25T12:39:12.682Z,85.58
2022-10-25T12:41:43.155Z,85.05
2022-10-25T12:44:28.500Z,85.27
2022-10-25T12:47:13.688Z,85.76
2022-10-25T12:49:50.263Z,86.02
2022-10-25T12:52:38.706Z,86.29
2022-10-25T12:55:42.668Z,85.19
2022-10-25T12:58:30.690Z,85.00
2022-10-25T13:01:33.550Z,84.99
2022-10-25T13:04:45.090Z,85.50
2022-10-25T13:07:13.882Z,85.27
2022-10-25T13:09:41.732Z,84.00
2022-10-25T13:12:30.784Z,84.08
2022-10-25T13:14:59.951Z,83.98
2022-10-25T13:17:26.694Z,83.65
2022-10-25T13:19:56.028Z,83.05
2022-10-25T13:22:40.424Z,83.74
2022-10-25T13:25:12.962Z,83.47
2022-10-25T13:28:01.207Z,83.45
2022-10-25T13:30:32.121Z,82.92
2022-10-25T13:33:38.568Z,82.11
2022-10-25T13:36:06.123Z,82.65
2022-10-25T13:38:39.387Z,82.64
2022-10-25T13:41:06.730Z,82.52
2022-10-25T13:43:34.210Z,81.95
2022-10-25T13:46:01.199Z,81.28
2022-10-25T13:48:31.914Z,81.56
2022-10-25T13:51:01.628Z,81.58
2022-10-25T13:53:42.601Z,80.89
2022-10-25T13:56:16.193Z,81.69
2022-10-25T13:58:55.021Z,81.59
2022-10-25T14:01:23.172Z,81.32
2022-10-25T14:04:02.216Z,81.30
2022-10-25T14:06:35.083Z,81.67
2022-10-25T14:09:40.193Z,81.54
2022-10-25T14:12:20.209Z,81.89
2022-10-25T14:15:28.701Z,82.18
2022-10-25T14:17:58.017Z,81.53
2022-10-25T14:20:32.681Z,81.72
2022-10-25T14:23:03.058Z,81.50
2022-10-25T14:25:51.175Z,81.45
2022-10-25T14:28:23.562Z,81.47
2022-10-25T14:30:53.703Z,81.16
2022-10-25T14:33:30.068Z,80.64
2022-10-25T14:36:19.895Z,80.86
2022-10-25T14:39:00.229Z,81.16
2022-10-25T14:41:29.723Z,81.48
2022-10-25T14:43:57.325Z,81.92
2022-10-25T14:46:26.403Z,82.29
2022-10-25T14:49:01.272Z,80.82
2022-10-25T14:51:33.274Z,80.71
2022-10-25T14:54:02.866Z,80.25
2022-10-25T14:56:35.191Z,80.46
2022-10-25T14:59:03.911Z,80.74
2022-10-25T15:01:30.767Z,81.52
2022-10-25T15:04:00.315Z,80.76
2022-10-25T15:06:31.561Z,80.57
2022-10-25T15:09:30.068Z,80.55
2022-10-25T15:12:20.102Z,79.85
2022-10-25T15:14:48.510Z,81.97
2022-10-25T15:17:17.186Z,82.53
2022-10-25T15:20:00.806Z,83.15
2022-10-25T15:22:33.000Z,82.71
2022-10-25T15:24:59.952Z,81.74
2022-10-25T15:27:32.840Z,82.07
2022-10-25T15:29:59.620Z,82.57
2022-10-25T15:32:27.803Z,81.74
2022-10-25T15:35:00.728Z,82.52
2022-10-25T15:37:29.219Z,82.32
2022-10-25T15:39:56.895Z,82.02
2022-10-25T15:42:26.041Z,81.69
2022-10-25T15:44:53.130Z,82.57
2022-10-25T15:47:32.413Z,82.44
2022-10-25T15:50:00.023Z,81.98
2022-10-25T15:52:27.270Z,82.13
2022-10-25T15:54:54.226Z,82.96
2022-10-25T15:57:21.375Z,83.13
2022-10-25T15:59:48.142Z,82.78
2022-10-25T16:02:21.322Z,83.71
2022-10-25T16:04:48.663Z,83.19
2022-10-25T16:07:16.421Z,83.76
2022-10-25T16:09:43.884Z,83.65
2022-10-25T16:12:20.561Z,83.44
2022-10-25T16:14:49.715Z,82.70
2022-10-25T16:17:16.484Z,82.67
2022-10-25T16:19:43.213Z,83.44
2022-10-25T16:22:09.992Z,84.35
2022-10-25T16:24:36.770Z,84.07
2022-10-25T16:27:03.951Z,84.30
2022-10-25T16:29:30.996Z,84.79
2022-10-25T16:31:57.769Z,84.23
2022-10-25T16:34:24.638Z,84.06
2022-10-25T16:36:52.713Z,83.88
2022-10-25T16:39:19.829Z,84.38
2022-10-25T16:41:47.744Z,84.63
2022-10-25T16:44:17.559Z,84.92
2022-10-25T16:46:45.340Z,85.23
2022-10-25T16:49:12.324Z,85.13
2022-10-25T16:51:40.061Z,84.76
2022-10-25T16:54:07.446Z,84.63
2022-10-25T16:56:34.340Z,85.07
2022-10-25T16:59:01.329Z,85.38
2022-10-25T17:01:33.843Z,86.03
2022-10-25T17:04:01.878Z,85.57
2022-10-25T17:06:40.913Z,85.59
2022-10-25T17:09:08.718Z,85.80
2022-10-25T17:11:36.466Z,85.45
2022-10-25T17:14:03.997Z,85.68
2022-10-25T17:16:30.933Z,85.92
2022-10-25T17:18:58.320Z,86.32
2022-10-25T17:21:25.049Z,86.55
2022-10-25T17:23:51.829Z,86.43
2022-10-25T17:26:18.705Z,86.51
2022-10-25T17:28:45.421Z,86.63
2022-10-25T17:31:14.918Z,86.99
2022-10-25T17:33:42.468Z,87.34
2022-10-25T17:36:14.154Z,87.20
2022-10-25T17:38:41.808Z,86.91
2022-10-25T17:41:09.191Z,87.71
2022-10-25T17:43:37.471Z,88.12
2022-10-25T17:46:06.457Z,87.80
2022-10-25T17:48:33.623Z,88.39
2022-10-25T17:51:02.430Z,88.86
2022-10-25T17:53:29.237Z,88.46
2022-10-25T17:55:56.368Z,88.62
2022-10-25T17:58:23.254Z,89.04
2022-10-25T18:00:50.227Z,88.27
2022-10-25T18:03:17.106Z,88.04
2022-10-25T18:05:44.053Z,88.51
2022-10-25T18:08:30.028Z,88.97
2022-10-25T18:10:57.008Z,88.79
2022-10-25T18:13:31.298Z,88.91
2022-10-25T18:16:01.315Z,89.20
2022-10-25T18:18:28.158Z,88.99
2022-10-25T18:20:54.904Z,89.19
2022-10-25T18:23:22.414Z,89.91
2022-10-25T18:25:52.917Z,89.69
2022-10-25T18:28:20.087Z,89.23
2022-10-25T18:30:46.913Z,89.42
2022-10-25T18:33:15.301Z,89.37
2022-10-25T18:35:42.411Z,89.14
2022-10-25T18:38:09.129Z,89.07
2022-10-25T18:40:36.197Z,89.66
2022-10-25T18:43:02.931Z,89.95
2022-10-25T18:45:30.123Z,89.63
2022-10-25T18:47:59.136Z,89.58
2022-10-25T18:50:26.670Z,89.53
2022-10-25T18:52:53.463Z,89.62
2022-10-25T18:55:26.866Z,89.86
2022-10-25T18:57:55.063Z,90.22
2022-10-25T19:00:27.882Z,90.19
2022-10-25T19:02:55.415Z,89.96
2022-10-25T19:05:23.795Z,89.72
2022-10-25T19:07:51.102Z,89.80
2022-10-25T19:10:18.284Z,89.78
2022-10-25T19:12:45.312Z,89.97
2022-10-25T19:15:13.491Z,90.46
2022-10-25T19:17:40.411Z,90.63
2022-10-25T19:20:07.785Z,90.54
2022-10-25T19:22:35.503Z,90.06
2022-10-25T19:25:02.292Z,90.10
2022-10-25T19:27:29.850Z,90.21
2022-10-25T19:29:57.933Z,90.35
2022-10-25T19:32:24.773Z,90.59
2022-10-25T19:37:40.130Z,90.30
2022-10-25T19:40:08.505Z,90.32
2022-10-25T19:42:35.379Z,90.27
2022-10-25T19:45:03.531Z,90.40
2022-10-25T19:47:30.398Z,90.79
2022-10-25T19:50:05.661Z,91.32
2022-10-25T19:52:36.298Z,90.89
2022-10-25T19:57:50.921Z,90.25
2022-10-25T20:00:17.893Z,90.33
2022-10-25T20:02:44.613Z,91.65
2022-10-25T20:07:58.220Z,93.83
2022-10-25T20:10:25.593Z,92.95
2022-10-25T20:12:52.339Z,92.50
2022-10-25T20:15:19.194Z,92.70
2022-10-25T20:17:46.327Z,92.34
2022-10-25T20:20:13.462Z,92.28
2022-10-25T20:22:40.233Z,91.79
2022-10-25T20:25:07.728Z,91.53
2022-10-25T20:27:34.726Z,91.99
2022-10-25T20:30:01.488Z,92.63
2022-10-25T20:32:28.310Z,92.55
2022-10-25T20:34:55.115Z,92.24
2022-10-25T20:37:21.926Z,92.07
2022-10-25T20:39:48.797Z,92.31
2022-10-25T20:42:17.887Z,92.29
2022-10-25T20:44:44.752Z,92.54
2022-10-25T20:47:11.536Z,92.79
2022-10-25T20:49:38.281Z,92.94
2022-10-25T20:52:05.139Z,93.15
2022-10-25T20:54:31.952Z,92.46
2022-10-25T20:56:58.686Z,92.37
2022-10-25T20:59:25.528Z,92.61
2022-10-25T21:01:52.719Z,92.60
2022-10-25T21:04:30.410Z,92.39
2022-10-25T21:07:03.898Z,92.35
2022-10-25T21:09:30.786Z,92.52
2022-10-25T21:11:57.567Z,92.77
2022-10-25T21:14:24.422Z,92.21
2022-10-25T21:16:51.150Z,92.32
2022-10-25T21:19:17.925Z,91.89
2022-10-25T21:21:44.642Z,92.09
2022-10-25T21:24:11.505Z,91.62
2022-10-25T21:26:38.484Z,91.84
2022-10-25T21:29:07.318Z,92.38
2022-10-25T21:31:34.191Z,93.14
2022-10-25T21:34:01.214Z,92.54
2022-10-25T21:36:28.352Z,92.22
2022-10-25T21:38:55.542Z,92.23
2022-10-25T21:41:27.338Z,92.06
2022-10-25T21:43:55.467Z,91.59
2022-10-25T21:46:23.561Z,91.34
2022-10-25T21:48:50.880Z,91.40
2022-10-25T21:51:21.780Z,91.38
2022-10-25T21:53:48.702Z,91.97
2022-10-25T21:56:20.462Z,91.73
2022-10-25T21:59:11.333Z,91.84
2022-10-25T22:01:38.293Z,92.05
2022-10-25T22:04:05.154Z,91.93
2022-10-25T22:06:31.914Z,92.26
2022-10-25T22:08:58.629Z,92.24
2022-10-25T22:11:31.753Z,91.72
2022-10-25T22:14:01.255Z,91.85
2022-10-25T22:16:29.325Z,91.52
2022-10-25T22:19:08.305Z,91.72
2022-10-25T22:21:38.354Z,92.04
2022-10-25T22:24:08.667Z,92.24
2022-10-25T22:26:36.938Z,92.39
2022-10-25T22:29:04.325Z,92.19
2022-10-25T22:31:31.785Z,92.10
2022-10-25T22:34:01.332Z,92.25
2022-10-25T22:36:37.418Z,92.88
2022-10-25T22:39:05.434Z,93.46
2022-10-25T22:41:32.306Z,94.86
2022-10-25T22:43:59.888Z,94.05
2022-10-25T22:46:32.514Z,93.93
2022-10-25T22:49:04.054Z,93.76
2022-10-25T22:51:31.125Z,93.39
2022-10-25T22:53:58.158Z,93.15
2022-10-25T22:56:27.622Z,93.10
2022-10-25T22:59:00.394Z,93.31
2022-10-25T23:01:28.999Z,93.02
2022-10-25T23:03:57.676Z,93.29
2022-10-25T23:06:33.471Z,93.77
2022-10-25T23:09:02.553Z,93.92
2022-10-25T23:11:33.599Z,94.21
2022-10-25T23:14:01.658Z,94.14
2022-10-25T23:16:29.650Z,93.91
2022-10-25T23:18:56.555Z,93.66
2022-10-25T23:21:25.454Z,93.48
2022-10-25T23:23:54.384Z,93.83
2022-10-25T23:26:23.895Z,93.82
2022-10-25T23:28:51.150Z,93.72
2022-10-25T23:31:18.358Z,93.95
2022-10-25T23:33:45.838Z,93.40
2022-10-25T23:36:15.862Z,93.22
2022-10-25T23:38:46.210Z,93.32
2022-10-25T23:41:13.197Z,93.47
2022-10-25T23:43:40.580Z,92.89
2022-10-25T23:46:08.050Z,92.88
2022-10-25T23:48:35.007Z,92.62
2022-10-25T23:51:04.427Z,92.49
2022-10-25T23:53:31.737Z,92.08
2022-10-25T23:55:59.039Z,92.20
2022-10-25T23:58:25.818Z,92.33
